Terminal Aerodrome Forecast
Issued by NWS North Platte, NE

Home | Current Version | Previous Version | Graphics & Text | Print | Product List | Glossary On
Versions: 1 2 3 4 5 6 7 8 9 10 11 12 13 14 15 16 17 18 19 20 21 22 23 24
000
FTUS43 KLBF 272300
TAFVTN
TAF
KVTN 272323Z 2800/2824 17012KT P6SM VCSH SCT021 SCT100 BKN120
     FM280700 11008KT P6SM VCTS SCT015 BKN030CB
      TEMPO 2807/2811 2SM +TSRA BKN025CB
     FM281100 11004KT 2SM BR BKN008
     FM281700 36008KT P6SM SCT008 OVC100=

USA.gov is the U.S. government's official web portal to all federal, state and local government web resources and services.